Savage, MT (59262)

4:55 AM MDT on September 02, 2014 (GMT -0600)
Sidney-Richland Municipal | Change Station
CLOSE
Current Station
Airport
Location: Sidney-Richland,
Elevation: 1985 ft
Nearby Weather Stations

Elev 1985 ft 47.71 °N, 104.19 °W | Updated 20 minutes ago

Clear
Clear
50 °F
Feels Like 50 °F
N
9
Wind Variable Wind from SSW

Today
High -- | Low -- °F
--% Chance of Precip.
Yesterday
High -- | Low -- °F
Precip. -- in
6:17 AM 7:35 PM
Waxing Crescent, 50% visible
Pressure 29.80 in
Visibility 10.0 miles
Clouds Clear
Dew Point 48 °F
Humidity 94%
Rainfall 0.00 in
Snow Depth Not available.
UV 0 out of 12
Pollen 8.70 out of 12
Air Quality Not available.
Flu Activity Not available.
METAR KSDY 021035Z AUTO 20008KT 10SM CLR 10/09 A2980 RMK AO1

More Conditions Fewer Conditions

Pressure 29.80 in
Visibility 10.0 miles
Clouds Clear
Dew Point 48 °F
Humidity 94%
Rainfall 0.00 in
Snow Depth Not available.
UV 0 out of 12
Pollen 8.70 out of 12
Air Quality Not available.
Flu Activity Not available.
METAR KSDY 021035Z AUTO 20008KT 10SM CLR 10/09 A2980 RMK AO1

More Conditions Fewer Conditions

10-Day Weather Forecast

Almanac

Astronomy

Sep. 02, 2014 Rise Set
Actual Time 6:17 AM MDT 7:35 PM MDT
Civil Twilight 5:45 AM MDT 8:07 PM MDT
Nautical Twilight 5:07 AM MDT 8:45 PM MDT
Astronomical Twilight 4:26 AM MDT 9:26 PM MDT
Moon 2:33 PM MDT No Moon Set
Length of Visible Light 14h 21m
Length of Day
13h 17m
Tomorrow will be 3m 19s shorter.
Waxing Crescent, 50% of the Moon is Illuminated
Today
Waxing Crescent
Sep 2
First Quarter
Sep 8
Full
Sep 15
Last Quarter
Sep 24
New

Today's Extremes

State Highs State Lows

Community

WunderPhotos

Upload Photos

1,749,611 photos uploaded!

WunderBlogs® & News

Nearby

Snow Depth

Station Depth Elevation
Crystal Lake 1 in 6050 ft
Rocky Boy 0 in 4700 ft
Cole Creek 0 in 7850 ft
Daisy Peak 0 in 7600 ft
Burnt Mountain 0 in 5880 ft

Earthquake Activity

City Distance Mag. Time & Date
No recent earthquake activity has been reported nearby.
Minimum magnitude displayed is 2.5.

Coastal Water Temperatures

Place Temperature
No Stations Reporting

Nearby Weather Stations